Time;durP1;ratioP1;P1;durP2;ratioP2;P2;SDS_P1;SDS_P2;PMS_P1;PMS_P2;Temp;Humidity;BMP_temperature;BMP_pressure;BME280_temperature;BME280_humidity;BME280_pressure;Samples;Min_cycle;Max_cycle;Signal;HPM_P1;HPM_P2
2022/10/18 00:02:09;;;;;;;;;;;;;;;16.96;100.00;98901.72;5078226;28;19929;-71
2022/10/18 00:04:37;;;;;;;;;;;;;;;16.94;100.00;98903.09;5078421;28;19925;-71
2022/10/18 00:07:04;;;;;;;;;;;;;;;16.90;100.00;98902.84;5081389;28;19960;-72
2022/10/18 00:09:30;;;;;;;;;;;;;;;16.91;100.00;98895.56;5079682;28;19983;-72
2022/10/18 00:11:56;;;;;;;;;;;;;;;16.90;100.00;98896.63;5077840;28;20082;-72
2022/10/18 00:14:23;;;;;;;;;;;;;;;16.86;100.00;98893.72;5078391;28;19929;-71
2022/10/18 00:16:49;;;;;;;;;;;;;;;16.80;100.00;98902.91;5080614;28;19970;-72
2022/10/18 00:19:16;;;;;;;;;;;;;;;16.84;100.00;98897.75;5080491;28;19935;-71
2022/10/18 00:21:43;;;;;;;;;;;;;;;16.83;100.00;98907.75;5078266;28;19929;-71
2022/10/18 00:24:10;;;;;;;;;;;;;;;16.78;100.00;98905.06;5077062;28;19925;-71
2022/10/18 00:26:36;;;;;;;;;;;;;;;16.78;100.00;98912.34;5094355;28;20291;-71
2022/10/18 00:29:04;;;;;;;;;;;;;;;16.79;100.00;98904.00;5080801;28;19929;-71
2022/10/18 00:31:31;;;;;;;;;;;;;;;16.79;100.00;98916.69;5095151;28;19960;-71
2022/10/18 00:33:59;;;;;;;;;;;;;;;16.76;100.00;98904.56;5077186;28;19925;-71
2022/10/18 00:36:26;;;;;;;;;;;;;;;16.78;100.00;98906.97;5092230;28;19996;-72
2022/10/18 00:38:54;;;;;;;;;;;;;;;16.79;100.00;98904.00;5068660;28;19925;-72
2022/10/18 00:41:21;;;;;;;;;;;;;;;16.78;100.00;98904.25;5076322;28;19925;-71
2022/10/18 00:43:51;;;;;;;;;;;;;;;16.80;100.00;98911.00;5078724;28;20436;-71
2022/10/18 00:46:18;;;;;;;;;;;;;;;16.76;100.00;98904.56;5095867;28;19925;-71
2022/10/18 00:48:44;;;;;;;;;;;;;;;16.75;100.00;98902.94;5077572;28;19952;-71
2022/10/18 00:51:11;;;;;;;;;;;;;;;16.72;100.00;98907.00;5075189;28;19925;-70
2022/10/18 00:53:38;;;;;;;;;;;;;;;16.70;100.00;98909.19;5081407;28;20026;-71
2022/10/18 00:56:06;;;;;;;;;;;;;;;16.72;100.00;98895.41;5076393;28;20020;-71
2022/10/18 00:58:32;;;;;;;;;;;;;;;16.71;100.00;98904.59;5077225;28;19963;-71
2022/10/18 01:00:58;;;;;;;;;;;;;;;16.71;100.00;98904.59;5079291;28;19971;-71
2022/10/18 01:03:25;;;;;;;;;;;;;;;16.72;100.00;98900.78;5079701;28;19966;-72
2022/10/18 01:05:51;;;;;;;;;;;;;;;16.69;100.00;98885.16;5068338;28;19960;-72
2022/10/18 01:08:26;;;;;;;;;;;;;;;16.62;100.00;98888.16;5075869;28;19984;-71
2022/10/18 01:10:57;;;;;;;;;;;;;;;16.59;100.00;98883.31;5068047;28;19931;-71
2022/10/18 01:13:31;;;;;;;;;;;;;;;16.60;100.00;98892.22;5075984;28;19936;-71
2022/10/18 01:16:00;;;;;;;;;;;;;;;16.60;100.00;98893.03;5068704;28;19968;-71
2022/10/18 01:18:30;;;;;;;;;;;;;;;16.59;100.00;98901.41;5075786;28;19975;-72
2022/10/18 01:21:09;;;;;;;;;;;;;;;16.62;100.00;98907.03;5079724;28;19924;-72
2022/10/18 01:24:04;;;;;;;;;;;;;;;16.62;100.00;98903.53;5078089;28;19932;-72
2022/10/18 01:26:39;;;;;;;;;;;;;;;16.60;100.00;98897.63;5076343;28;19924;-72
2022/10/18 01:29:13;;;;;;;;;;;;;;;16.57;100.00;98888.22;5079574;28;19920;-72
2022/10/18 01:31:44;;;;;;;;;;;;;;;16.58;100.00;98895.22;5077593;28;19967;-71
2022/10/18 01:34:11;;;;;;;;;;;;;;;16.58;100.00;98889.00;5075733;28;19924;-70
2022/10/18 01:36:40;;;;;;;;;;;;;;;16.59;100.00;98894.13;5077489;28;20375;-72
2022/10/18 01:39:08;;;;;;;;;;;;;;;16.59;100.00;98901.41;5079519;28;19946;-72
2022/10/18 01:41:36;;;;;;;;;;;;;;;16.59;100.00;98896.00;5078058;28;20480;-72
2022/10/18 01:44:05;;;;;;;;;;;;;;;16.57;100.00;98888.22;5075910;28;19928;-72
2022/10/18 01:46:33;;;;;;;;;;;;;;;16.56;100.00;98883.06;5076739;28;19924;-71
2022/10/18 01:49:00;;;;;;;;;;;;;;;16.52;100.00;98892.78;5079270;28;19964;-71
2022/10/18 01:51:28;;;;;;;;;;;;;;;16.52;100.00;98895.50;5078935;28;19988;-71
2022/10/18 01:53:54;;;;;;;;;;;;;;;16.52;100.00;98885.50;5075743;28;19925;-71
2022/10/18 01:56:27;;;;;;;;;;;;;;;16.49;100.00;98875.28;5075219;28;19987;-71
2022/10/18 01:59:02;;;;;;;;;;;;;;;16.48;100.00;98881.75;5066804;28;19928;-71
2022/10/18 02:01:33;;;;;;;;;;;;;;;16.47;100.00;98882.81;5075425;28;19999;-71
2022/10/18 02:04:05;;;;;;;;;;;;;;;16.49;100.00;98879.88;5093568;28;19960;-72
2022/10/18 02:06:36;;;;;;;;;;;;;;;16.50;100.00;98887.66;5077144;28;19995;-71
2022/10/18 02:09:07;;;;;;;;;;;;;;;16.48;100.00;98894.41;5074853;28;19944;-71
2022/10/18 02:11:35;;;;;;;;;;;;;;;16.38;100.00;98897.97;5074621;28;19971;-72
2022/10/18 02:14:05;;;;;;;;;;;;;;;16.40;100.00;98886.91;5078145;28;19925;-72
2022/10/18 02:16:35;;;;;;;;;;;;;;;16.42;100.00;98890.94;5076900;28;19924;-72
2022/10/18 02:19:05;;;;;;;;;;;;;;;16.35;100.00;98889.63;5074348;28;19997;-72
2022/10/18 02:21:32;;;;;;;;;;;;;;;16.39;100.00;98882.59;5075438;28;20023;-72
2022/10/18 02:23:59;;;;;;;;;;;;;;;16.38;100.00;98889.88;5078342;28;19971;-71
2022/10/18 02:26:26;;;;;;;;;;;;;;;16.41;100.00;98894.72;5074300;28;19925;-71
2022/10/18 02:28:52;;;;;;;;;;;;;;;16.41;100.00;98893.91;5066065;28;19935;-70
2022/10/18 02:31:20;;;;;;;;;;;;;;;16.39;100.00;98890.69;5090050;28;19931;-71
2022/10/18 02:33:52;;;;;;;;;;;;;;;16.43;100.00;98891.75;5077055;28;19924;-71
2022/10/18 02:36:23;;;;;;;;;;;;;;;16.41;100.00;98889.31;5077676;28;19921;-71
2022/10/18 02:38:52;;;;;;;;;;;;;;;16.39;100.00;98885.31;5074624;28;19925;-72
2022/10/18 02:41:22;;;;;;;;;;;;;;;16.38;100.00;98891.75;5074244;28;19998;-72
2022/10/18 02:43:48;;;;;;;;;;;;;;;16.37;100.00;98880.16;5077448;28;19952;-72
2022/10/18 02:46:14;;;;;;;;;;;;;;;16.34;100.00;98885.34;5078253;28;19964;-72
2022/10/18 02:48:41;;;;;;;;;;;;;;;16.34;100.00;98896.13;5075615;28;19931;-72
2022/10/18 02:51:07;;;;;;;;;;;;;;;16.35;100.00;98889.63;5074405;28;19925;-72
2022/10/18 02:53:35;;;;;;;;;;;;;;;16.32;100.00;98890.97;5079287;28;19928;-72
2022/10/18 02:56:02;;;;;;;;;;;;;;;16.30;100.00;98889.66;5073881;28;19925;-71
2022/10/18 02:58:28;;;;;;;;;;;;;;;16.30;100.00;98881.56;5073123;28;19925;-71
2022/10/18 03:00:54;;;;;;;;;;;;;;;16.26;100.00;98886.69;5077456;28;20258;-71
2022/10/18 03:03:21;;;;;;;;;;;;;;;16.28;100.00;98886.44;5076999;28;19948;-72
2022/10/18 03:05:49;;;;;;;;;;;;;;;16.25;100.00;98889.69;5074226;28;20140;-72
2022/10/18 03:08:15;;;;;;;;;;;;;;;16.28;100.00;98889.13;5073980;28;19992;-72
2022/10/18 03:10:44;;;;;;;;;;;;;;;16.26;100.00;98885.88;5075900;28;19988;-71
2022/10/18 03:13:11;;;;;;;;;;;;;;;16.25;100.00;98887.78;5077117;28;19924;-72
2022/10/18 03:15:38;;;;;;;;;;;;;;;16.22;100.00;98901.03;5075537;28;20035;-72
2022/10/18 03:18:04;;;;;;;;;;;;;;;16.16;100.00;98892.94;5073438;28;19928;-72
2022/10/18 03:20:30;;;;;;;;;;;;;;;16.05;100.00;98896.75;5074080;28;19967;-72
2022/10/18 03:22:57;;;;;;;;;;;;;;;15.83;100.00;98898.97;5076637;28;19924;-72
2022/10/18 03:25:23;;;;;;;;;;;;;;;15.79;100.00;98895.19;5076758;28;19924;-72
2022/10/18 03:27:51;;;;;;;;;;;;;;;15.83;100.00;98888.19;5073544;28;19947;-71
2022/10/18 03:30:17;;;;;;;;;;;;;;;15.92;100.00;98897.31;5073654;28;19925;-70
2022/10/18 03:32:44;;;;;;;;;;;;;;;15.74;100.00;98905.97;5075975;28;20011;-71
2022/10/18 03:35:10;;;;;;;;;;;;;;;15.55;100.00;98894.16;5077155;28;19991;-72
2022/10/18 03:37:36;;;;;;;;;;;;;;;15.72;100.00;98900.03;5075137;28;19925;-72
2022/10/18 03:40:03;;;;;;;;;;;;;;;15.82;100.00;98897.34;5073208;28;19970;-71
2022/10/18 03:42:29;;;;;;;;;;;;;;;15.92;100.00;98901.91;5073766;28;19995;-71
2022/10/18 03:44:57;;;;;;;;;;;;;;;15.88;100.00;98896.25;5077186;28;20454;-72
2022/10/18 03:47:23;;;;;;;;;;;;;;;15.90;100.00;98904.06;5075454;28;19987;-71
2022/10/18 03:49:50;;;;;;;;;;;;;;;15.79;100.00;98900.56;5073201;28;19952;-72
2022/10/18 03:52:16;;;;;;;;;;;;;;;15.80;100.00;98896.81;5072752;28;19925;-72
2022/10/18 03:54:42;;;;;;;;;;;;;;;15.87;100.00;98891.16;5073916;28;19986;-71
2022/10/18 03:57:09;;;;;;;;;;;;;;;15.93;100.00;98887.34;5075182;28;20032;-71
2022/10/18 03:59:35;;;;;;;;;;;;;;;15.95;100.00;98890.56;5075276;28;19992;-71
2022/10/18 04:02:04;;;;;;;;;;;;;;;16.01;100.00;98884.91;5072657;28;19996;-71
2022/10/18 04:04:31;;;;;;;;;;;;;;;16.04;100.00;98876.28;5073563;28;19993;-72
2022/10/18 04:06:57;;;;;;;;;;;;;;;16.02;100.00;98875.75;5076401;28;20684;-71
2022/10/18 04:09:23;;;;;;;;;;;;;;;16.03;100.00;98882.72;5076283;28;19928;-72
2022/10/18 04:11:50;;;;;;;;;;;;;;;16.08;100.00;98876.53;5072805;28;19935;-72
2022/10/18 04:14:16;;;;;;;;;;;;;;;16.06;100.00;98876.00;5073197;28;20574;-71
2022/10/18 04:16:42;;;;;;;;;;;;;;;16.05;100.00;98879.78;5075174;28;19925;-72
2022/10/18 04:19:10;;;;;;;;;;;;;;;16.05;100.00;98885.16;5076313;28;19928;-72
2022/10/18 04:21:36;;;;;;;;;;;;;;;15.95;100.00;98880.59;5074809;28;19935;-72
2022/10/18 04:24:03;;;;;;;;;;;;;;;15.88;100.00;98882.78;5072798;28;19953;-72
2022/10/18 04:26:29;;;;;;;;;;;;;;;15.90;100.00;98883.31;5073393;28;19925;-71
2022/10/18 04:28:55;;;;;;;;;;;;;;;15.90;100.00;98877.13;5076187;28;20261;-71
2022/10/18 04:31:22;;;;;;;;;;;;;;;15.86;100.00;98876.06;5076138;28;19975;-72
2022/10/18 04:33:48;;;;;;;;;;;;;;;15.91;100.00;98884.09;5072844;28;19925;-71
2022/10/18 04:36:16;;;;;;;;;;;;;;;15.93;100.00;98882.78;5076411;28;19975;-72
2022/10/18 04:38:42;;;;;;;;;;;;;;;15.95;100.00;98886.00;5078837;28;19925;-72
2022/10/18 04:41:08;;;;;;;;;;;;;;;15.96;100.00;98886.81;5079883;28;20385;-71
2022/10/18 04:43:35;;;;;;;;;;;;;;;15.98;100.00;98874.66;5093901;28;19924;-71
2022/10/18 04:46:01;;;;;;;;;;;;;;;15.93;100.00;98876.59;5076058;28;19925;-71
2022/10/18 04:48:28;;;;;;;;;;;;;;;15.91;100.00;98876.84;5076078;28;19952;-71
2022/10/18 04:50:54;;;;;;;;;;;;;;;15.93;100.00;98872.00;5079309;28;19955;-72
2022/10/18 04:53:22;;;;;;;;;;;;;;;15.97;100.00;98874.94;5078063;28;19980;-71
2022/10/18 04:55:49;;;;;;;;;;;;;;;16.02;100.00;98875.75;5076362;28;20028;-72
2022/10/18 04:58:16;;;;;;;;;;;;;;;16.05;100.00;98871.69;5075514;28;20409;-72
2022/10/18 05:00:46;;;;;;;;;;;;;;;15.98;100.00;98868.47;5078269;28;19925;-71
2022/10/18 05:03:13;;;;;;;;;;;;;;;15.93;100.00;98877.41;5080409;28;20655;-72
2022/10/18 05:05:40;;;;;;;;;;;;;;;15.82;100.00;98874.97;5075927;28;19936;-71
2022/10/18 05:08:06;;;;;;;;;;;;;;;15.84;100.00;98879.03;5075665;28;19932;-72
2022/10/18 05:10:34;;;;;;;;;;;;;;;15.84;100.00;98870.97;5076387;28;19921;-71
2022/10/18 05:13:00;;;;;;;;;;;;;;;15.89;100.00;98870.94;5078823;28;19931;-71
2022/10/18 05:15:27;;;;;;;;;;;;;;;15.89;100.00;98878.19;5078761;28;20372;-72
2022/10/18 05:17:53;;;;;;;;;;;;;;;15.92;100.00;98875.78;5075649;28;19932;-71
2022/10/18 05:20:19;;;;;;;;;;;;;;;15.95;100.00;98879.78;5075374;28;19936;-71
2022/10/18 05:22:46;;;;;;;;;;;;;;;15.87;100.00;98867.72;5076985;28;19924;-72
2022/10/18 05:25:12;;;;;;;;;;;;;;;15.64;100.00;98869.09;5094542;28;19925;-70
2022/10/18 05:27:40;;;;;;;;;;;;;;;15.59;100.00;98871.81;5092776;28;20113;-71
2022/10/18 05:30:08;;;;;;;;;;;;;;;15.45;100.00;98867.22;5074678;28;19925;-70
2022/10/18 05:32:34;;;;;;;;;;;;;;;15.09;100.00;98872.63;5092197;28;19931;-71
2022/10/18 05:35:00;;;;;;;;;;;;;;;15.01;100.00;98873.13;5078542;28;19963;-70
2022/10/18 05:37:27;;;;;;;;;;;;;;;14.86;100.00;98866.94;5078703;28;19992;-71
2022/10/18 05:39:53;;;;;;;;;;;;;;;14.66;100.00;98869.59;5074011;28;19948;-71
2022/10/18 05:42:20;;;;;;;;;;;;;;;14.31;100.00;98872.94;5090300;28;19987;-71
2022/10/18 05:44:47;;;;;;;;;;;;;;;14.07;100.00;98870.72;5077986;28;19932;-71
2022/10/18 05:47:14;;;;;;;;;;;;;;;14.17;100.00;98875.34;5078626;28;19924;-71
2022/10/18 05:49:40;;;;;;;;;;;;;;;14.22;100.00;98883.41;5076433;28;19947;-70
2022/10/18 05:52:07;;;;;;;;;;;;;;;14.20;100.00;98880.19;5075060;28;20354;-71
2022/10/18 05:54:33;;;;;;;;;;;;;;;14.01;100.00;98876.31;5076060;28;19944;-72
2022/10/18 05:57:00;;;;;;;;;;;;;;;13.94;100.00;98876.56;5077884;28;19933;-70
2022/10/18 05:59:26;;;;;;;;;;;;;;;13.88;100.00;98882.16;5078248;28;19925;-72
2022/10/18 06:01:54;;;;;;;;;;;;;;;13.80;100.00;98891.50;5066577;28;19924;-71
2022/10/18 06:04:20;;;;;;;;;;;;;;;14.17;100.00;98885.25;5074381;28;19978;-71
2022/10/18 06:06:47;;;;;;;;;;;;;;;14.54;100.00;98884.06;5076145;28;19982;-71
2022/10/18 06:09:13;;;;;;;;;;;;;;;14.58;100.00;98887.03;5078336;28;19991;-71
2022/10/18 06:11:39;;;;;;;;;;;;;;;14.33;100.00;98884.25;5076182;28;19932;-70
2022/10/18 06:14:07;;;;;;;;;;;;;;;14.19;100.00;98877.75;5074564;28;19929;-71
2022/10/18 06:16:33;;;;;;;;;;;;;;;14.30;100.00;98888.25;5075780;28;19951;-71
2022/10/18 06:19:01;;;;;;;;;;;;;;;14.10;100.00;98885.50;5077245;28;19924;-71
2022/10/18 06:21:27;;;;;;;;;;;;;;;14.11;100.00;98894.38;5077181;28;19996;-71
2022/10/18 06:23:55;;;;;;;;;;;;;;;14.11;100.00;98897.88;5073688;28;19925;-71
2022/10/18 06:26:21;;;;;;;;;;;;;;;14.17;100.00;98902.19;5073848;28;19925;-71
2022/10/18 06:28:48;;;;;;;;;;;;;;;13.98;100.00;98915.28;5076430;28;19932;-71
2022/10/18 06:31:14;;;;;;;;;;;;;;;13.97;100.00;98913.63;5076971;28;19924;-71
2022/10/18 06:33:41;;;;;;;;;;;;;;;14.16;100.00;98918.56;5090347;28;19931;-71
2022/10/18 06:36:10;;;;;;;;;;;;;;;14.32;100.00;98915.69;5073361;28;19924;-71
2022/10/18 06:38:37;;;;;;;;;;;;;;;14.24;100.00;98918.06;5074823;28;19984;-71
2022/10/18 06:41:03;;;;;;;;;;;;;;;14.16;100.00;98923.94;5076590;28;20472;-70
2022/10/18 06:43:30;;;;;;;;;;;;;;;14.01;100.00;98922.00;5076439;28;19924;-71
2022/10/18 06:45:57;;;;;;;;;;;;;;;13.87;100.00;98923.50;5072147;28;19992;-71
2022/10/18 06:48:23;;;;;;;;;;;;;;;13.90;100.00;98934.53;5073329;28;19940;-71
2022/10/18 06:50:53;;;;;;;;;;;;;;;13.71;100.00;98936.00;5076436;28;20064;-71
2022/10/18 06:53:21;;;;;;;;;;;;;;;13.63;100.00;98936.50;5076755;28;19925;-71
2022/10/18 06:55:48;;;;;;;;;;;;;;;13.77;100.00;98934.97;5072641;28;19971;-71
2022/10/18 06:58:14;;;;;;;;;;;;;;;14.23;100.00;98954.06;5072559;28;19929;-71
2022/10/18 07:00:40;;;;;;;;;;;;;;;14.60;100.00;98952.13;5074725;28;19981;-72
2022/10/18 07:03:07;;;;;;;;;;;;;;;14.05;100.00;98947.25;5076384;28;19995;-72
2022/10/18 07:05:33;;;;;;;;;;;;;;;13.84;100.00;98946.31;5075759;28;20333;-71
2022/10/18 07:08:00;;;;;;;;;;;;;;;13.96;100.00;98951.47;5088444;28;19924;-72
2022/10/18 07:10:27;;;;;;;;;;;;;;;13.90;100.00;98937.22;5072997;28;19928;-71
2022/10/18 07:12:54;;;;;;;;;;;;;;;13.85;100.00;98947.94;5064803;28;19936;-70
2022/10/18 07:15:22;;;;;;;;;;;;;;;13.98;100.00;98946.69;5072967;28;19925;-70
2022/10/18 07:17:49;;;;;;;;;;;;;;;14.25;100.00;98962.66;5075834;28;20382;-71
2022/10/18 07:20:15;;;;;;;;;;;;;;;14.53;100.00;98960.44;5076391;28;19924;-71
2022/10/18 07:22:41;;;;;;;;;;;;;;;14.61;100.00;98955.63;5071511;28;19925;-71
2022/10/18 07:25:08;;;;;;;;;;;;;;;14.40;100.00;98954.72;5076257;28;19924;-71
2022/10/18 07:27:37;;;;;;;;;;;;;;;14.25;100.00;98952.75;5073839;28;20017;-71
2022/10/18 07:30:04;;;;;;;;;;;;;;;14.05;100.00;98958.78;5071372;28;20450;-72
2022/10/18 07:32:31;;;;;;;;;;;;;;;13.83;100.00;98944.69;5073525;28;19925;-71
2022/10/18 07:34:57;;;;;;;;;;;;;;;13.68;100.00;98949.16;5091653;28;19929;-71
2022/10/18 07:37:23;;;;;;;;;;;;;;;13.83;100.00;98946.59;5091841;28;19960;-71
2022/10/18 07:39:50;;;;;;;;;;;;;;;13.84;100.00;98949.00;5072992;28;19996;-72
2022/10/18 07:42:16;;;;;;;;;;;;;;;13.67;100.00;98944.84;5088258;28;19929;-71
2022/10/18 07:44:44;;;;;;;;;;;;;;;13.56;100.00;98938.59;5073768;28;19935;-74
2022/10/18 07:47:10;;;;;;;;;;;;;;;13.61;100.00;98932.47;5076246;28;19932;-71
2022/10/18 07:49:36;;;;;;;;;;;;;;;13.66;100.00;98948.59;5074835;28;19931;-71
2022/10/18 07:52:03;;;;;;;;;;;;;;;13.54;100.00;98948.78;5072640;28;20044;-71
2022/10/18 07:54:29;;;;;;;;;;;;;;;13.61;100.00;98970.84;5072884;28;19975;-71
2022/10/18 07:56:55;;;;;;;;;;;;;;;13.64;100.00;98962.28;5075889;28;19929;-70
2022/10/18 07:59:22;;;;;;;;;;;;;;;13.62;100.00;98967.09;5076420;28;19964;-71
2022/10/18 08:01:49;;;;;;;;;;;;;;;13.92;100.00;98961.97;5073069;28;19924;-71
2022/10/18 08:04:16;;;;;;;;;;;;;;;13.76;100.00;98970.97;5073035;28;19925;-71
2022/10/18 08:06:42;;;;;;;;;;;;;;;13.61;100.00;98968.19;5075629;28;19957;-71
2022/10/18 08:09:08;;;;;;;;;;;;;;;13.56;100.00;98969.97;5092705;28;19924;-71
2022/10/18 08:11:35;;;;;;;;;;;;;;;13.57;100.00;98963.56;5078848;28;19924;-70
2022/10/18 08:14:01;;;;;;;;;;;;;;;13.40;100.00;98947.63;5076627;28;20004;-71
2022/10/18 08:16:29;;;;;;;;;;;;;;;13.32;100.00;98953.44;5076389;28;19929;-71
2022/10/18 08:18:58;;;;;;;;;;;;;;;13.26;100.00;98946.41;5079863;28;19952;-71
2022/10/18 08:21:24;;;;;;;;;;;;;;;13.26;100.00;98949.09;5079476;28;19963;-71
2022/10/18 08:23:52;;;;;;;;;;;;;;;13.25;100.00;98950.13;5076455;28;19989;-71
2022/10/18 08:26:20;;;;;;;;;;;;;;;13.44;100.00;98952.19;5074804;28;19935;-72
2022/10/18 08:28:47;;;;;;;;;;;;;;;13.58;100.00;98951.78;5077727;28;20401;-70
2022/10/18 08:31:16;;;;;;;;;;;;;;;14.00;100.00;98957.97;5079793;28;19947;-71
2022/10/18 08:33:42;;;;;;;;;;;;;;;14.11;100.00;98964.22;5075990;28;19924;-71
2022/10/18 08:36:12;;;;;;;;;;;;;;;14.19;100.00;98961.03;5075868;28;19925;-71
2022/10/18 08:38:39;;;;;;;;;;;;;;;14.17;100.00;98958.63;5077108;28;19925;-70
2022/10/18 08:41:17;;;;;;;;;;;;;;;14.22;100.00;98947.06;5079199;28;19924;-71
2022/10/18 08:43:47;;;;;;;;;;;;;;;13.94;100.00;98946.38;5076662;28;19983;-71
2022/10/18 08:46:14;;;;;;;;;;;;;;;13.84;100.00;98951.69;5073960;28;19925;-71
2022/10/18 08:48:42;;;;;;;;;;;;;;;13.81;100.00;98946.84;5077317;28;20008;-71
2022/10/18 08:51:15;;;;;;;;;;;;;;;13.87;100.00;98948.47;5079386;28;19928;-71
2022/10/18 08:53:48;;;;;;;;;;;;;;;13.74;100.00;98938.19;5076960;28;20019;-71
2022/10/18 08:56:15;;;;;;;;;;;;;;;13.80;100.00;98937.16;5075572;28;19928;-71
2022/10/18 08:58:42;;;;;;;;;;;;;;;13.88;100.00;98934.00;5075864;28;19948;-71
2022/10/18 09:01:15;;;;;;;;;;;;;;;13.76;100.00;98929.88;5079200;28;19925;-71
2022/10/18 09:03:52;;;;;;;;;;;;;;;13.78;100.00;98936.59;5077294;28;19973;-70
2022/10/18 09:06:23;;;;;;;;;;;;;;;13.76;100.00;98938.75;5075395;28;19928;-71
2022/10/18 09:08:56;;;;;;;;;;;;;;;13.80;100.00;98925.63;5078700;28;19925;-72
2022/10/18 09:11:36;;;;;;;;;;;;;;;13.84;100.00;98924.84;5094847;28;19971;-71
2022/10/18 09:14:20;;;;;;;;;;;;;;;13.85;100.00;98915.72;5085929;28;20107;-71
2022/10/18 09:16:51;;;;;;;;;;;;;;;14.09;100.00;98929.53;5078713;28;19968;-71
2022/10/18 09:19:26;;;;;;;;;;;;;;;14.20;100.00;98927.72;5078942;28;19934;-71
2022/10/18 09:21:55;;;;;;;;;;;;;;;14.53;100.00;98922.78;5082637;28;19932;-71
2022/10/18 09:24:25;;;;;;;;;;;;;;;14.36;100.00;98924.06;5075323;28;20041;-71
2022/10/18 09:26:56;;;;;;;;;;;;;;;14.35;100.00;98925.13;5066902;28;19932;-73
2022/10/18 09:29:32;;;;;;;;;;;;;;;14.38;100.00;98928.13;5075202;28;19955;-71
2022/10/18 09:32:03;;;;;;;;;;;;;;;14.27;100.00;98925.59;5067798;28;19984;-72
2022/10/18 09:34:31;;;;;;;;;;;;;;;14.27;100.00;98934.47;5075085;28;20791;-71
2022/10/18 09:36:59;;;;;;;;;;;;;;;14.59;100.00;98940.56;5078021;28;19924;-72
2022/10/18 09:39:29;;;;;;;;;;;;;;;14.89;100.00;98942.50;5078265;28;19985;-72
2022/10/18 09:41:57;;;;;;;;;;;;;;;15.13;100.00;98945.53;5067180;28;19936;-73
2022/10/18 09:44:25;;;;;;;;;;;;;;;15.27;100.00;98929.66;5074908;28;19925;-72
2022/10/18 09:46:55;;;;;;;;;;;;;;;15.12;100.00;98931.28;5077039;28;19924;-72
2022/10/18 09:49:23;;;;;;;;;;;;;;;14.81;100.00;98926.91;5077136;28;19936;-72
2022/10/18 09:51:50;;;;;;;;;;;;;;;14.71;100.00;98931.44;5075517;28;19929;-71
2022/10/18 09:54:24;;;;;;;;;;;;;;;14.62;100.00;98938.41;5074859;28;19957;-72
2022/10/18 09:56:52;;;;;;;;;;;;;;;14.51;100.00;98932.19;5076804;28;20410;-72
2022/10/18 09:59:31;;;;;;;;;;;;;;;14.61;100.00;98934.91;5093724;28;20140;-72
2022/10/18 10:01:58;;;;;;;;;;;;;;;14.80;100.00;98938.72;5067322;28;19993;-72
2022/10/18 10:04:24;;;;;;;;;;;;;;;14.79;100.00;98920.97;5073486;28;19933;-72
2022/10/18 10:06:51;;;;;;;;;;;;;;;14.83;100.00;98930.13;5078285;28;19935;-72
2022/10/18 10:09:21;;;;;;;;;;;;;;;14.93;100.00;98932.03;5093863;28;19924;-72
2022/10/18 10:11:49;;;;;;;;;;;;;;;15.09;100.00;98942.56;5075423;28;19964;-72
2022/10/18 10:14:18;;;;;;;;;;;;;;;15.08;100.00;98940.94;5074408;28;19925;-71
2022/10/18 10:16:47;;;;;;;;;;;;;;;15.02;100.00;98931.25;5076603;28;19925;-72
2022/10/18 10:19:16;;;;;;;;;;;;;;;15.02;100.00;98930.44;5077775;28;20071;-72
2022/10/18 10:21:43;;;;;;;;;;;;;;;15.02;100.00;98931.25;5075658;28;19925;-72
2022/10/18 10:24:18;;;;;;;;;;;;;;;15.00;100.00;98933.41;5074295;28;20023;-72
2022/10/18 10:26:45;;;;;;;;;;;;;;;15.00;100.00;98922.66;5076680;28;19931;-73
2022/10/18 10:29:26;;;;;;;;;;;;;;;15.07;100.00;98917.78;5077716;28;19982;-72
2022/10/18 10:32:01;;;;;;;;;;;;;;;15.07;100.00;98920.47;5063019;28;19924;-71
2022/10/18 10:34:29;;;;;;;;;;;;;;;15.04;100.00;98929.09;5074020;28;20491;-72
2022/10/18 10:36:55;;;;;;;;;;;;;;;15.13;100.00;98915.94;5077828;28;19925;-72
2022/10/18 10:39:22;;;;;;;;;;;;;;;15.14;100.00;98912.97;5078180;28;19931;-71
2022/10/18 10:41:50;;;;;;;;;;;;;;;15.20;100.00;98918.34;5073920;28;19996;-71
2022/10/18 10:44:17;;;;;;;;;;;;;;;15.20;100.00;98911.09;5074426;28;20343;-72
2022/10/18 10:46:43;;;;;;;;;;;;;;;15.21;100.00;98901.94;5074745;28;19925;-72
2022/10/18 10:49:17;;;;;;;;;;;;;;;15.37;100.00;98910.81;5075947;28;19925;-72
2022/10/18 10:51:44;;;;;;;;;;;;;;;15.39;100.00;98905.97;5074753;28;19925;-72
2022/10/18 10:54:14;;;;;;;;;;;;;;;15.44;100.00;98911.38;5073300;28;19925;-71
2022/10/18 10:56:51;;;;;;;;;;;;;;;15.43;100.00;98904.38;5075840;28;19931;-71
2022/10/18 10:59:18;;;;;;;;;;;;;;;15.47;100.00;98903.56;5076206;28;19928;-71
2022/10/18 11:01:46;;;;;;;;;;;;;;;15.58;100.00;98894.44;5074665;28;19986;-71
2022/10/18 11:04:24;;;;;;;;;;;;;;;15.62;100.00;98892.00;5073295;28;20004;-71
2022/10/18 11:06:58;;;;;;;;;;;;;;;15.62;100.00;98889.31;5076575;28;19956;-71
2022/10/18 11:09:31;;;;;;;;;;;;;;;15.70;100.00;98877.97;5076827;28;19929;-71
2022/10/18 11:12:10;;;;;;;;;;;;;;;15.67;100.00;98881.22;5065621;28;19948;-71
2022/10/18 11:14:38;;;;;;;;;;;;;;;15.77;100.00;98878.50;5074079;28;19925;-71
2022/10/18 11:17:12;;;;;;;;;;;;;;;15.88;100.00;98869.31;5076401;28;19925;-71
2022/10/18 11:19:44;;;;;;;;;;;;;;;15.94;100.00;98862.00;5074733;28;20117;-72
2022/10/18 11:22:14;;;;;;;;;;;;;;;15.97;100.00;98862.28;5072919;28;19980;-71
2022/10/18 11:24:41;;;;;;;;;;;;;;;16.03;100.00;98861.16;5075087;28;19992;-72
2022/10/18 11:27:13;;;;;;;;;;;;;;;16.17;100.00;98856.81;5075460;28;19993;-71
2022/10/18 11:29:47;;;;;;;;;;;;;;;16.21;100.00;98854.38;5073806;28;19984;-71
2022/10/18 11:32:18;;;;;;;;;;;;;;;16.27;100.00;98844.38;5074141;28;19931;-71
2022/10/18 11:34:53;;;;;;;;;;;;;;;16.38;100.00;98846.75;5077527;28;19964;-72
2022/10/18 11:37:30;;;;;;;;;;;;;;;16.37;100.00;98844.34;5076409;28;19929;-71
2022/10/18 11:40:02;;;;;;;;;;;;;;;16.47;100.00;98838.88;5064893;28;19925;-71
2022/10/18 11:42:32;;;;;;;;;;;;;;;16.51;100.00;98826.44;5088095;28;19969;-72
2022/10/18 11:45:05;;;;;;;;;;;;;;;16.49;100.00;98820.53;5080220;28;19920;-72
2022/10/18 11:47:36;;;;;;;;;;;;;;;16.55;100.00;98830.25;5079637;28;19983;-72
2022/10/18 11:50:07;;;;;;;;;;;;;;;16.66;100.00;98827.19;5076565;28;19947;-71
2022/10/18 11:52:37;;;;;;;;;;;;;;;16.72;100.00;98825.25;5077492;28;19925;-71
2022/10/18 11:55:13;;;;;;;;;;;;;;;16.75;100.00;98822.00;5080141;28;19967;-71
2022/10/18 11:57:43;;;;;;;;;;;;;;;16.82;100.00;98819.81;5093762;28;19929;-71
2022/10/18 12:00:18;;;;;;;;;;;;;;;16.84;100.00;98816.81;5076669;28;19938;-71
2022/10/18 12:02:53;;;;;;;;;;;;;;;16.91;100.00;98817.31;5078896;28;19932;-71
2022/10/18 12:05:22;;;;;;;;;;;;;;;17.06;100.00;98809.91;5080155;28;19980;-71
2022/10/18 12:07:53;;;;;;;;;;;;;;;17.13;100.00;98804.97;5077252;28;19980;-72
2022/10/18 12:10:20;;;;;;;;;;;;;;;17.16;100.00;98804.41;5076303;28;19991;-72
2022/10/18 12:12:50;;;;;;;;;;;;;;;17.27;100.00;98802.41;5078846;28;19925;-71
2022/10/18 12:15:18;;;;;;;;;;;;;;;17.30;100.00;98801.84;5079676;28;20400;-71
2022/10/18 12:17:46;;;;;;;;;;;;;;;17.36;100.00;98798.00;5077188;28;19924;-71
2022/10/18 12:20:14;;;;;;;;;;;;;;;17.41;100.00;98797.16;5076237;28;20348;-71
2022/10/18 12:22:47;;;;;;;;;;;;;;;17.45;100.00;98798.22;5093982;28;20353;-71
2022/10/18 12:25:15;;;;;;;;;;;;;;;17.49;100.00;98797.34;5079764;28;19925;-71
2022/10/18 12:27:44;;;;;;;;;;;;;;;17.49;100.00;98791.94;5076500;28;19925;-71
2022/10/18 12:30:15;;;;;;;;;;;;;;;17.56;100.00;98792.44;5075921;28;19966;-71
2022/10/18 12:32:41;;;;;;;;;;;;;;;17.66;100.00;98796.94;5078256;28;19925;-72
2022/10/18 12:35:11;;;;;;;;;;;;;;;17.80;100.00;98787.03;5079839;28;19925;-71
2022/10/18 12:37:52;;;;;;;;;;;;;;;17.82;100.00;98775.94;5077046;28;20412;-71
2022/10/18 12:40:23;;;;;;;;;;;;;;;17.77;100.00;98766.78;5075017;28;20221;-71
2022/10/18 12:42:51;;;;;;;;;;;;;;;17.79;100.00;98764.59;5078861;28;19993;-72